Аэропорт: Сыктывкар. Сыктывкар

ICAO: UUYY

METAR:
2021-07-28 13:30:00
UUYY 281330Z 23002MPS 200V270 CAVOK 17/08 Q1010 R18/61D NOSIG RMK QFE749/0999
METAR:
2021-07-28 11:00:00
TAF UUYY 281100Z 2812/2912 29003G10MPS 9999 BKN020CB TEMPO 2812/2815 33006G14MPS 6000 -SHRA FEW011 BKN016CB BECMG 2815/2817 22003MPS TEMPO 2815/2912 6000 -SHRA FEW007 BKN016CB BECMG 2902/2903 30003G08MPS